sensor_id;sensor_type;location;lat;lon;timestamp;temperature;humidity
5286;DHT22;2665;53.112;7.358;2024-01-30T00:01:44;7.20;25.30
5286;DHT22;2665;53.112;7.358;2024-01-30T00:04:10;7.20;94.70
5286;DHT22;2665;53.112;7.358;2024-01-30T00:06:36;7.20;99.90
5286;DHT22;2665;53.112;7.358;2024-01-30T00:09:01;7.30;99.90
5286;DHT22;2665;53.112;7.358;2024-01-30T00:11:27;7.30;99.90
5286;DHT22;2665;53.112;7.358;2024-01-30T00:13:54;7.30;99.90
5286;DHT22;2665;53.112;7.358;2024-01-30T00:16:22;7.30;99.90
5286;DHT22;2665;53.112;7.358;2024-01-30T00:18:53;7.30;99.90
5286;DHT22;2665;53.112;7.358;2024-01-30T00:21:19;7.20;99.90
5286;DHT22;2665;53.112;7.358;2024-01-30T00:23:45;7.20;99.90
5286;DHT22;2665;53.112;7.358;2024-01-30T00:26:10;7.20;99.90
5286;DHT22;2665;53.112;7.358;2024-01-30T00:28:37;7.30;99.90
5286;DHT22;2665;53.112;7.358;2024-01-30T00:31:03;7.20;99.90
5286;DHT22;2665;53.112;7.358;2024-01-30T00:33:29;7.30;99.90
5286;DHT22;2665;53.112;7.358;2024-01-30T00:35:55;7.30;99.90
5286;DHT22;2665;53.112;7.358;2024-01-30T00:38:21;7.30;99.90
5286;DHT22;2665;53.112;7.358;2024-01-30T00:40:46;7.30;99.90
5286;DHT22;2665;53.112;7.358;2024-01-30T00:43:12;7.30;99.90
5286;DHT22;2665;53.112;7.358;2024-01-30T00:45:37;7.30;99.90
5286;DHT22;2665;53.112;7.358;2024-01-30T00:48:03;7.40;99.90
5286;DHT22;2665;53.112;7.358;2024-01-30T00:50:29;7.40;99.90
5286;DHT22;2665;53.112;7.358;2024-01-30T00:52:55;7.40;99.90
5286;DHT22;2665;53.112;7.358;2024-01-30T00:55:21;7.40;99.90
5286;DHT22;2665;53.112;7.358;2024-01-30T00:57:46;7.50;99.90
5286;DHT22;2665;53.112;7.358;2024-01-30T01:00:13;7.40;99.90
5286;DHT22;2665;53.112;7.358;2024-01-30T01:02:42;7.40;99.90
5286;DHT22;2665;53.112;7.358;2024-01-30T01:05:08;7.40;99.90
5286;DHT22;2665;53.112;7.358;2024-01-30T01:07:34;7.40;99.90
5286;DHT22;2665;53.112;7.358;2024-01-30T01:09:59;7.40;99.90
5286;DHT22;2665;53.112;7.358;2024-01-30T01:12:25;7.50;99.90
5286;DHT22;2665;53.112;7.358;2024-01-30T01:14:51;7.50;99.90
5286;DHT22;2665;53.112;7.358;2024-01-30T01:17:17;7.50;99.90
5286;DHT22;2665;53.112;7.358;2024-01-30T01:19:44;7.50;1.00
5286;DHT22;2665;53.112;7.358;2024-01-30T01:22:09;7.50;1.00
5286;DHT22;2665;53.112;7.358;2024-01-30T01:24:35;7.50;99.90
5286;DHT22;2665;53.112;7.358;2024-01-30T01:27:01;7.40;99.90
5286;DHT22;2665;53.112;7.358;2024-01-30T01:29:27;7.40;99.90
5286;DHT22;2665;53.112;7.358;2024-01-30T01:31:57;7.40;99.90
5286;DHT22;2665;53.112;7.358;2024-01-30T01:34:24;7.30;99.90
5286;DHT22;2665;53.112;7.358;2024-01-30T01:36:50;7.30;99.90
5286;DHT22;2665;53.112;7.358;2024-01-30T01:39:16;7.20;99.90
5286;DHT22;2665;53.112;7.358;2024-01-30T01:41:42;7.20;99.90
5286;DHT22;2665;53.112;7.358;2024-01-30T01:44:08;7.20;1.00
5286;DHT22;2665;53.112;7.358;2024-01-30T01:46:34;7.20;1.00
5286;DHT22;2665;53.112;7.358;2024-01-30T01:49:04;7.20;1.00
5286;DHT22;2665;53.112;7.358;2024-01-30T01:51:31;7.20;1.00
5286;DHT22;2665;53.112;7.358;2024-01-30T01:54:01;7.20;1.00
5286;DHT22;2665;53.112;7.358;2024-01-30T01:56:27;7.30;1.00
5286;DHT22;2665;53.112;7.358;2024-01-30T01:58:55;7.20;1.00
5286;DHT22;2665;53.112;7.358;2024-01-30T02:01:21;7.30;1.00
5286;DHT22;2665;53.112;7.358;2024-01-30T02:03:47;7.30;1.00
5286;DHT22;2665;53.112;7.358;2024-01-30T02:06:16;7.30;1.00
5286;DHT22;2665;53.112;7.358;2024-01-30T02:11:10;7.20;1.00
5286;DHT22;2665;53.112;7.358;2024-01-30T02:13:37;7.30;1.00
5286;DHT22;2665;53.112;7.358;2024-01-30T02:16:02;7.20;1.00
5286;DHT22;2665;53.112;7.358;2024-01-30T02:18:28;7.20;1.00
5286;DHT22;2665;53.112;7.358;2024-01-30T02:20:56;7.20;1.00
5286;DHT22;2665;53.112;7.358;2024-01-30T02:23:24;7.20;1.00
5286;DHT22;2665;53.112;7.358;2024-01-30T02:25:53;7.20;1.00
5286;DHT22;2665;53.112;7.358;2024-01-30T02:28:19;7.20;1.00
5286;DHT22;2665;53.112;7.358;2024-01-30T02:30:46;7.20;1.00
5286;DHT22;2665;53.112;7.358;2024-01-30T02:33:12;7.20;1.00
5286;DHT22;2665;53.112;7.358;2024-01-30T02:35:38;7.20;1.00
5286;DHT22;2665;53.112;7.358;2024-01-30T02:38:04;7.20;1.00
5286;DHT22;2665;53.112;7.358;2024-01-30T02:40:30;7.20;1.00
5286;DHT22;2665;53.112;7.358;2024-01-30T02:42:57;7.20;1.00
5286;DHT22;2665;53.112;7.358;2024-01-30T02:45:23;7.20;1.00
5286;DHT22;2665;53.112;7.358;2024-01-30T02:47:48;7.20;1.00
5286;DHT22;2665;53.112;7.358;2024-01-30T02:50:14;7.20;1.00
5286;DHT22;2665;53.112;7.358;2024-01-30T02:52:40;7.20;1.00
5286;DHT22;2665;53.112;7.358;2024-01-30T02:55:06;7.20;1.00
5286;DHT22;2665;53.112;7.358;2024-01-30T02:57:32;7.20;1.00
5286;DHT22;2665;53.112;7.358;2024-01-30T02:59:58;7.20;1.00
5286;DHT22;2665;53.112;7.358;2024-01-30T03:02:23;7.10;1.00
5286;DHT22;2665;53.112;7.358;2024-01-30T03:04:49;7.10;1.00
5286;DHT22;2665;53.112;7.358;2024-01-30T03:07:15;7.10;1.00
5286;DHT22;2665;53.112;7.358;2024-01-30T03:09:41;7.10;1.00
5286;DHT22;2665;53.112;7.358;2024-01-30T03:12:09;7.10;1.00
5286;DHT22;2665;53.112;7.358;2024-01-30T03:14:34;7.10;1.00
5286;DHT22;2665;53.112;7.358;2024-01-30T03:17:00;7.10;1.00
5286;DHT22;2665;53.112;7.358;2024-01-30T03:19:26;7.10;5.30
5286;DHT22;2665;53.112;7.358;2024-01-30T03:21:52;7.10;11.20
5286;DHT22;2665;53.112;7.358;2024-01-30T03:24:17;7.10;7.40
5286;DHT22;2665;53.112;7.358;2024-01-30T03:26:43;7.10;11.80
5286;DHT22;2665;53.112;7.358;2024-01-30T03:29:09;7.10;5.00
5286;DHT22;2665;53.112;7.358;2024-01-30T03:31:35;7.10;5.10
5286;DHT22;2665;53.112;7.358;2024-01-30T03:34:01;7.10;1.00
5286;DHT22;2665;53.112;7.358;2024-01-30T03:36:27;7.10;2.50
5286;DHT22;2665;53.112;7.358;2024-01-30T03:38:53;7.00;5.40
5286;DHT22;2665;53.112;7.358;2024-01-30T03:41:18;7.00;10.10
5286;DHT22;2665;53.112;7.358;2024-01-30T03:43:44;7.00;12.20
5286;DHT22;2665;53.112;7.358;2024-01-30T03:46:12;7.00;17.30
5286;DHT22;2665;53.112;7.358;2024-01-30T03:48:37;7.00;14.60
5286;DHT22;2665;53.112;7.358;2024-01-30T03:51:04;7.00;15.80
5286;DHT22;2665;53.112;7.358;2024-01-30T03:53:29;7.00;21.20
5286;DHT22;2665;53.112;7.358;2024-01-30T03:55:55;7.00;23.50
5286;DHT22;2665;53.112;7.358;2024-01-30T03:58:21;7.00;29.70
5286;DHT22;2665;53.112;7.358;2024-01-30T04:00:47;7.00;27.20
5286;DHT22;2665;53.112;7.358;2024-01-30T04:03:14;7.00;33.20
5286;DHT22;2665;53.112;7.358;2024-01-30T04:05:40;7.00;34.00
5286;DHT22;2665;53.112;7.358;2024-01-30T04:08:07;7.00;32.00
5286;DHT22;2665;53.112;7.358;2024-01-30T04:10:33;7.10;29.70
5286;DHT22;2665;53.112;7.358;2024-01-30T04:12:58;7.10;29.80
5286;DHT22;2665;53.112;7.358;2024-01-30T04:15:25;7.00;28.30
5286;DHT22;2665;53.112;7.358;2024-01-30T04:17:51;7.00;27.90
5286;DHT22;2665;53.112;7.358;2024-01-30T04:20:16;7.00;26.60
5286;DHT22;2665;53.112;7.358;2024-01-30T04:22:46;7.00;23.30
5286;DHT22;2665;53.112;7.358;2024-01-30T04:25:15;7.00;18.00
5286;DHT22;2665;53.112;7.358;2024-01-30T04:27:40;7.00;19.10
5286;DHT22;2665;53.112;7.358;2024-01-30T04:30:06;7.00;23.60
5286;DHT22;2665;53.112;7.358;2024-01-30T04:32:32;7.10;27.60
5286;DHT22;2665;53.112;7.358;2024-01-30T04:34:58;7.10;32.20
5286;DHT22;2665;53.112;7.358;2024-01-30T04:37:24;7.10;28.10
5286;DHT22;2665;53.112;7.358;2024-01-30T04:39:50;7.20;24.40
5286;DHT22;2665;53.112;7.358;2024-01-30T04:42:16;7.20;21.20
5286;DHT22;2665;53.112;7.358;2024-01-30T04:44:42;7.20;14.60
5286;DHT22;2665;53.112;7.358;2024-01-30T04:47:08;7.20;12.80
5286;DHT22;2665;53.112;7.358;2024-01-30T04:49:36;7.20;8.40
5286;DHT22;2665;53.112;7.358;2024-01-30T04:52:02;7.20;9.70
5286;DHT22;2665;53.112;7.358;2024-01-30T04:54:28;7.30;6.80
5286;DHT22;2665;53.112;7.358;2024-01-30T04:56:53;7.30;3.90
5286;DHT22;2665;53.112;7.358;2024-01-30T04:59:19;7.30;1.00
5286;DHT22;2665;53.112;7.358;2024-01-30T05:01:45;7.30;1.00
5286;DHT22;2665;53.112;7.358;2024-01-30T05:04:10;7.30;1.00
5286;DHT22;2665;53.112;7.358;2024-01-30T05:06:37;7.30;1.00
5286;DHT22;2665;53.112;7.358;2024-01-30T05:09:02;7.30;1.00
5286;DHT22;2665;53.112;7.358;2024-01-30T05:11:31;7.30;1.00
5286;DHT22;2665;53.112;7.358;2024-01-30T05:13:57;7.30;1.00
5286;DHT22;2665;53.112;7.358;2024-01-30T05:16:22;7.30;1.00
5286;DHT22;2665;53.112;7.358;2024-01-30T05:18:48;7.30;1.00
5286;DHT22;2665;53.112;7.358;2024-01-30T05:21:14;7.40;1.00
5286;DHT22;2665;53.112;7.358;2024-01-30T05:23:40;7.40;1.00
5286;DHT22;2665;53.112;7.358;2024-01-30T05:26:07;7.40;1.00
5286;DHT22;2665;53.112;7.358;2024-01-30T05:28:33;7.50;1.00
5286;DHT22;2665;53.112;7.358;2024-01-30T05:30:59;7.50;1.00
5286;DHT22;2665;53.112;7.358;2024-01-30T05:33:25;7.50;1.00
5286;DHT22;2665;53.112;7.358;2024-01-30T05:35:50;7.50;1.00
5286;DHT22;2665;53.112;7.358;2024-01-30T05:38:19;7.50;1.00
5286;DHT22;2665;53.112;7.358;2024-01-30T05:40:45;7.50;1.00
5286;DHT22;2665;53.112;7.358;2024-01-30T05:43:11;7.50;1.00
5286;DHT22;2665;53.112;7.358;2024-01-30T05:45:37;7.50;99.90
5286;DHT22;2665;53.112;7.358;2024-01-30T05:48:03;7.50;99.90
5286;DHT22;2665;53.112;7.358;2024-01-30T05:50:29;7.50;99.90
5286;DHT22;2665;53.112;7.358;2024-01-30T05:52:55;7.60;99.90
5286;DHT22;2665;53.112;7.358;2024-01-30T05:55:20;7.60;1.00
5286;DHT22;2665;53.112;7.358;2024-01-30T05:57:46;7.60;1.00
5286;DHT22;2665;53.112;7.358;2024-01-30T06:00:12;7.70;99.90
5286;DHT22;2665;53.112;7.358;2024-01-30T06:02:38;7.60;99.90
5286;DHT22;2665;53.112;7.358;2024-01-30T06:05:04;7.60;78.00
5286;DHT22;2665;53.112;7.358;2024-01-30T06:07:29;7.70;1.00
5286;DHT22;2665;53.112;7.358;2024-01-30T06:09:55;7.60;1.00
5286;DHT22;2665;53.112;7.358;2024-01-30T06:12:21;7.70;1.00
5286;DHT22;2665;53.112;7.358;2024-01-30T06:14:46;7.60;99.90
5286;DHT22;2665;53.112;7.358;2024-01-30T06:17:12;7.70;99.90
5286;DHT22;2665;53.112;7.358;2024-01-30T06:19:40;7.70;99.90
5286;DHT22;2665;53.112;7.358;2024-01-30T06:22:06;7.70;1.00
5286;DHT22;2665;53.112;7.358;2024-01-30T06:24:32;7.70;1.00
5286;DHT22;2665;53.112;7.358;2024-01-30T06:26:59;7.80;1.00
5286;DHT22;2665;53.112;7.358;2024-01-30T06:29:24;7.80;1.00
5286;DHT22;2665;53.112;7.358;2024-01-30T06:31:52;7.80;1.00
5286;DHT22;2665;53.112;7.358;2024-01-30T06:34:17;7.80;99.90
5286;DHT22;2665;53.112;7.358;2024-01-30T06:36:43;7.80;99.90
5286;DHT22;2665;53.112;7.358;2024-01-30T06:39:09;7.80;99.90
5286;DHT22;2665;53.112;7.358;2024-01-30T06:41:35;7.80;99.90
5286;DHT22;2665;53.112;7.358;2024-01-30T06:44:02;7.80;22.50
5286;DHT22;2665;53.112;7.358;2024-01-30T06:46:29;7.80;3.00
5286;DHT22;2665;53.112;7.358;2024-01-30T06:48:55;7.80;1.00
5286;DHT22;2665;53.112;7.358;2024-01-30T06:51:20;7.80;1.90
5286;DHT22;2665;53.112;7.358;2024-01-30T06:53:46;7.80;4.90
5286;DHT22;2665;53.112;7.358;2024-01-30T06:56:12;7.80;2.40
5286;DHT22;2665;53.112;7.358;2024-01-30T06:58:37;7.80;1.00
5286;DHT22;2665;53.112;7.358;2024-01-30T07:01:03;7.80;2.50
5286;DHT22;2665;53.112;7.358;2024-01-30T07:03:29;7.80;1.00
5286;DHT22;2665;53.112;7.358;2024-01-30T07:05:54;7.90;1.00
5286;DHT22;2665;53.112;7.358;2024-01-30T07:08:20;7.90;1.00
5286;DHT22;2665;53.112;7.358;2024-01-30T07:10:46;7.80;1.00
5286;DHT22;2665;53.112;7.358;2024-01-30T07:13:13;7.90;2.50
5286;DHT22;2665;53.112;7.358;2024-01-30T07:15:38;7.90;1.00
5286;DHT22;2665;53.112;7.358;2024-01-30T07:18:05;7.90;1.00
5286;DHT22;2665;53.112;7.358;2024-01-30T07:20:31;7.90;1.00
5286;DHT22;2665;53.112;7.358;2024-01-30T07:23:00;7.90;99.90
5286;DHT22;2665;53.112;7.358;2024-01-30T07:25:26;7.90;99.90
5286;DHT22;2665;53.112;7.358;2024-01-30T07:27:55;7.90;1.00
5286;DHT22;2665;53.112;7.358;2024-01-30T07:30:21;7.90;77.80
5286;DHT22;2665;53.112;7.358;2024-01-30T07:32:48;7.90;99.90
5286;DHT22;2665;53.112;7.358;2024-01-30T07:35:14;7.90;1.00
5286;DHT22;2665;53.112;7.358;2024-01-30T07:37:40;7.90;1.00
5286;DHT22;2665;53.112;7.358;2024-01-30T07:40:06;7.90;1.00
5286;DHT22;2665;53.112;7.358;2024-01-30T07:42:33;7.90;40.70
5286;DHT22;2665;53.112;7.358;2024-01-30T07:44:59;7.90;58.00
5286;DHT22;2665;53.112;7.358;2024-01-30T07:47:25;7.90;99.90
5286;DHT22;2665;53.112;7.358;2024-01-30T07:49:51;8.00;99.90
5286;DHT22;2665;53.112;7.358;2024-01-30T07:52:17;8.00;99.90
5286;DHT22;2665;53.112;7.358;2024-01-30T07:54:42;8.00;41.20
5286;DHT22;2665;53.112;7.358;2024-01-30T07:57:08;8.00;41.10
5286;DHT22;2665;53.112;7.358;2024-01-30T07:59:33;8.00;1.00
5286;DHT22;2665;53.112;7.358;2024-01-30T08:02:00;8.10;1.00
5286;DHT22;2665;53.112;7.358;2024-01-30T08:04:25;8.10;1.00
5286;DHT22;2665;53.112;7.358;2024-01-30T08:06:51;8.10;99.90
5286;DHT22;2665;53.112;7.358;2024-01-30T08:09:16;8.10;99.90
5286;DHT22;2665;53.112;7.358;2024-01-30T08:11:42;8.20;99.90
5286;DHT22;2665;53.112;7.358;2024-01-30T08:14:08;8.20;99.90
5286;DHT22;2665;53.112;7.358;2024-01-30T08:16:33;8.20;99.90
5286;DHT22;2665;53.112;7.358;2024-01-30T08:18:59;8.20;1.00
5286;DHT22;2665;53.112;7.358;2024-01-30T08:21:26;8.30;1.00
5286;DHT22;2665;53.112;7.358;2024-01-30T08:23:51;8.30;1.00
5286;DHT22;2665;53.112;7.358;2024-01-30T08:26:17;8.30;1.00
5286;DHT22;2665;53.112;7.358;2024-01-30T08:28:44;8.40;1.00
5286;DHT22;2665;53.112;7.358;2024-01-30T08:31:11;8.40;1.00
5286;DHT22;2665;53.112;7.358;2024-01-30T08:33:37;8.40;1.00
5286;DHT22;2665;53.112;7.358;2024-01-30T08:36:03;8.50;1.00
5286;DHT22;2665;53.112;7.358;2024-01-30T08:38:29;8.50;1.00
5286;DHT22;2665;53.112;7.358;2024-01-30T08:40:55;8.50;99.90
5286;DHT22;2665;53.112;7.358;2024-01-30T08:43:20;8.50;99.90
5286;DHT22;2665;53.112;7.358;2024-01-30T08:45:46;8.50;99.90
5286;DHT22;2665;53.112;7.358;2024-01-30T08:48:12;8.50;99.90
5286;DHT22;2665;53.112;7.358;2024-01-30T08:50:38;8.60;3.00
5286;DHT22;2665;53.112;7.358;2024-01-30T08:53:03;8.60;1.00
5286;DHT22;2665;53.112;7.358;2024-01-30T08:55:29;8.60;99.90
5286;DHT22;2665;53.112;7.358;2024-01-30T08:57:55;8.60;99.90
5286;DHT22;2665;53.112;7.358;2024-01-30T09:00:20;8.60;99.90
5286;DHT22;2665;53.112;7.358;2024-01-30T09:02:46;8.60;99.90
5286;DHT22;2665;53.112;7.358;2024-01-30T09:05:12;8.70;99.90
5286;DHT22;2665;53.112;7.358;2024-01-30T09:07:37;8.70;99.90
5286;DHT22;2665;53.112;7.358;2024-01-30T09:10:04;8.70;99.90
5286;DHT22;2665;53.112;7.358;2024-01-30T09:12:29;8.80;99.90
5286;DHT22;2665;53.112;7.358;2024-01-30T09:14:55;8.80;99.90
5286;DHT22;2665;53.112;7.358;2024-01-30T09:17:21;8.80;99.90
5286;DHT22;2665;53.112;7.358;2024-01-30T09:19:46;8.90;99.90
5286;DHT22;2665;53.112;7.358;2024-01-30T09:22:12;8.90;1.00
5286;DHT22;2665;53.112;7.358;2024-01-30T09:24:38;8.90;1.00
5286;DHT22;2665;53.112;7.358;2024-01-30T09:27:04;9.00;1.00
5286;DHT22;2665;53.112;7.358;2024-01-30T09:29:29;9.00;1.00
5286;DHT22;2665;53.112;7.358;2024-01-30T09:31:55;9.00;1.00
5286;DHT22;2665;53.112;7.358;2024-01-30T09:34:21;9.00;1.00
5286;DHT22;2665;53.112;7.358;2024-01-30T09:36:46;9.10;1.00
5286;DHT22;2665;53.112;7.358;2024-01-30T09:39:12;9.10;1.00
5286;DHT22;2665;53.112;7.358;2024-01-30T09:41:52;9.20;1.00
5286;DHT22;2665;53.112;7.358;2024-01-30T09:44:22;9.20;1.00
5286;DHT22;2665;53.112;7.358;2024-01-30T09:46:48;9.30;1.00
5286;DHT22;2665;53.112;7.358;2024-01-30T09:49:15;9.30;1.00
5286;DHT22;2665;53.112;7.358;2024-01-30T09:51:41;9.30;1.00
5286;DHT22;2665;53.112;7.358;2024-01-30T09:54:08;9.40;1.00
5286;DHT22;2665;53.112;7.358;2024-01-30T09:56:35;9.40;1.00
5286;DHT22;2665;53.112;7.358;2024-01-30T09:59:00;9.40;1.00
5286;DHT22;2665;53.112;7.358;2024-01-30T10:01:26;9.50;1.00
5286;DHT22;2665;53.112;7.358;2024-01-30T10:03:54;9.50;99.90
5286;DHT22;2665;53.112;7.358;2024-01-30T10:06:20;9.50;99.90
5286;DHT22;2665;53.112;7.358;2024-01-30T10:08:46;9.60;1.00
5286;DHT22;2665;53.112;7.358;2024-01-30T10:11:12;9.70;1.00
5286;DHT22;2665;53.112;7.358;2024-01-30T10:13:39;9.80;1.00
5286;DHT22;2665;53.112;7.358;2024-01-30T10:16:05;9.90;99.90
5286;DHT22;2665;53.112;7.358;2024-01-30T10:18:32;10.00;99.90
5286;DHT22;2665;53.112;7.358;2024-01-30T10:20:59;10.00;1.00
5286;DHT22;2665;53.112;7.358;2024-01-30T10:23:24;10.00;1.00
5286;DHT22;2665;53.112;7.358;2024-01-30T10:25:53;10.10;1.00
5286;DHT22;2665;53.112;7.358;2024-01-30T10:28:19;10.10;1.00
5286;DHT22;2665;53.112;7.358;2024-01-30T10:30:44;10.10;1.00
5286;DHT22;2665;53.112;7.358;2024-01-30T10:33:10;10.10;1.00
5286;DHT22;2665;53.112;7.358;2024-01-30T10:35:36;10.10;1.00
5286;DHT22;2665;53.112;7.358;2024-01-30T10:38:02;10.10;1.00
5286;DHT22;2665;53.112;7.358;2024-01-30T10:40:29;10.20;1.00
5286;DHT22;2665;53.112;7.358;2024-01-30T10:42:55;10.20;26.40
5286;DHT22;2665;53.112;7.358;2024-01-30T10:45:22;10.30;1.40
5286;DHT22;2665;53.112;7.358;2024-01-30T10:47:54;10.40;1.00
5286;DHT22;2665;53.112;7.358;2024-01-30T10:50:27;10.40;1.00
5286;DHT22;2665;53.112;7.358;2024-01-30T10:52:54;10.40;1.00
5286;DHT22;2665;53.112;7.358;2024-01-30T10:55:21;10.40;1.00
5286;DHT22;2665;53.112;7.358;2024-01-30T10:57:48;10.40;1.00
5286;DHT22;2665;53.112;7.358;2024-01-30T11:00:14;10.50;1.00
5286;DHT22;2665;53.112;7.358;2024-01-30T11:02:45;10.50;1.00
5286;DHT22;2665;53.112;7.358;2024-01-30T11:05:12;10.50;99.90
5286;DHT22;2665;53.112;7.358;2024-01-30T11:07:39;10.50;99.90
5286;DHT22;2665;53.112;7.358;2024-01-30T11:10:07;10.60;99.90
5286;DHT22;2665;53.112;7.358;2024-01-30T11:12:39;10.60;99.90
5286;DHT22;2665;53.112;7.358;2024-01-30T11:15:07;10.70;99.90
5286;DHT22;2665;53.112;7.358;2024-01-30T11:17:50;10.70;99.90
5286;DHT22;2665;53.112;7.358;2024-01-30T11:20:30;10.80;99.90
5286;DHT22;2665;53.112;7.358;2024-01-30T11:22:57;10.80;99.90
5286;DHT22;2665;53.112;7.358;2024-01-30T11:25:23;10.90;99.90
5286;DHT22;2665;53.112;7.358;2024-01-30T11:27:53;10.90;99.90
5286;DHT22;2665;53.112;7.358;2024-01-30T11:30:27;10.90;99.90
5286;DHT22;2665;53.112;7.358;2024-01-30T11:33:05;10.90;99.90
5286;DHT22;2665;53.112;7.358;2024-01-30T11:35:39;11.00;99.90
5286;DHT22;2665;53.112;7.358;2024-01-30T11:38:06;10.90;99.90
5286;DHT22;2665;53.112;7.358;2024-01-30T11:40:33;10.90;99.90
5286;DHT22;2665;53.112;7.358;2024-01-30T11:43:00;10.90;99.90
5286;DHT22;2665;53.112;7.358;2024-01-30T11:45:27;10.90;99.90
5286;DHT22;2665;53.112;7.358;2024-01-30T11:47:53;10.90;1.00
5286;DHT22;2665;53.112;7.358;2024-01-30T11:50:19;10.90;1.00
5286;DHT22;2665;53.112;7.358;2024-01-30T11:52:44;10.80;1.00
5286;DHT22;2665;53.112;7.358;2024-01-30T11:55:10;10.80;1.00
5286;DHT22;2665;53.112;7.358;2024-01-30T11:57:36;10.80;1.00
5286;DHT22;2665;53.112;7.358;2024-01-30T12:00:05;10.90;1.00
5286;DHT22;2665;53.112;7.358;2024-01-30T12:02:42;10.90;1.00
5286;DHT22;2665;53.112;7.358;2024-01-30T12:05:08;10.90;1.00
5286;DHT22;2665;53.112;7.358;2024-01-30T12:07:34;10.90;1.00
5286;DHT22;2665;53.112;7.358;2024-01-30T12:10:00;10.90;1.00
5286;DHT22;2665;53.112;7.358;2024-01-30T12:12:27;10.90;1.00
5286;DHT22;2665;53.112;7.358;2024-01-30T12:14:53;10.90;1.00
5286;DHT22;2665;53.112;7.358;2024-01-30T12:17:30;10.80;1.00
5286;DHT22;2665;53.112;7.358;2024-01-30T12:20:19;10.80;42.80
5286;DHT22;2665;53.112;7.358;2024-01-30T12:22:47;10.80;99.90
5286;DHT22;2665;53.112;7.358;2024-01-30T12:25:15;10.80;99.90
5286;DHT22;2665;53.112;7.358;2024-01-30T12:27:45;10.80;99.90
5286;DHT22;2665;53.112;7.358;2024-01-30T12:30:13;10.80;99.90
5286;DHT22;2665;53.112;7.358;2024-01-30T12:32:40;10.80;99.90
5286;DHT22;2665;53.112;7.358;2024-01-30T12:35:14;10.80;99.90
5286;DHT22;2665;53.112;7.358;2024-01-30T12:37:41;10.80;99.90
5286;DHT22;2665;53.112;7.358;2024-01-30T12:40:08;10.80;99.90
5286;DHT22;2665;53.112;7.358;2024-01-30T12:42:35;10.80;99.90
5286;DHT22;2665;53.112;7.358;2024-01-30T12:45:02;10.80;99.90
5286;DHT22;2665;53.112;7.358;2024-01-30T12:47:29;10.80;1.00
5286;DHT22;2665;53.112;7.358;2024-01-30T12:49:54;10.90;1.00
5286;DHT22;2665;53.112;7.358;2024-01-30T12:52:21;10.90;1.00
5286;DHT22;2665;53.112;7.358;2024-01-30T12:54:48;11.00;99.90
5286;DHT22;2665;53.112;7.358;2024-01-30T12:57:13;11.00;99.90
5286;DHT22;2665;53.112;7.358;2024-01-30T12:59:39;11.10;99.90
5286;DHT22;2665;53.112;7.358;2024-01-30T13:02:05;11.10;99.90
5286;DHT22;2665;53.112;7.358;2024-01-30T13:04:32;11.10;1.00
5286;DHT22;2665;53.112;7.358;2024-01-30T13:06:58;11.20;1.00
5286;DHT22;2665;53.112;7.358;2024-01-30T13:09:25;11.20;1.00
5286;DHT22;2665;53.112;7.358;2024-01-30T13:11:51;11.20;99.90
5286;DHT22;2665;53.112;7.358;2024-01-30T13:14:18;11.20;99.90
5286;DHT22;2665;53.112;7.358;2024-01-30T13:16:43;11.30;99.90
5286;DHT22;2665;53.112;7.358;2024-01-30T13:19:09;11.30;49.30
5286;DHT22;2665;53.112;7.358;2024-01-30T13:21:34;11.30;1.00
5286;DHT22;2665;53.112;7.358;2024-01-30T13:24:00;11.30;1.00
5286;DHT22;2665;53.112;7.358;2024-01-30T13:26:26;11.20;1.00
5286;DHT22;2665;53.112;7.358;2024-01-30T13:28:51;11.30;1.00
5286;DHT22;2665;53.112;7.358;2024-01-30T13:31:17;11.30;1.00
5286;DHT22;2665;53.112;7.358;2024-01-30T13:33:44;11.20;1.00
5286;DHT22;2665;53.112;7.358;2024-01-30T13:36:11;11.20;57.80
5286;DHT22;2665;53.112;7.358;2024-01-30T13:38:37;11.10;99.90
5286;DHT22;2665;53.112;7.358;2024-01-30T13:41:03;11.00;1.00
5286;DHT22;2665;53.112;7.358;2024-01-30T13:43:29;10.90;1.00
5286;DHT22;2665;53.112;7.358;2024-01-30T13:45:55;10.80;99.90
5286;DHT22;2665;53.112;7.358;2024-01-30T13:48:21;11.00;1.00
5286;DHT22;2665;53.112;7.358;2024-01-30T13:50:47;11.20;1.00
5286;DHT22;2665;53.112;7.358;2024-01-30T13:53:13;11.10;6.80
5286;DHT22;2665;53.112;7.358;2024-01-30T13:55:39;11.20;99.90
5286;DHT22;2665;53.112;7.358;2024-01-30T13:58:05;11.30;1.00
5286;DHT22;2665;53.112;7.358;2024-01-30T14:00:31;11.30;22.90
5286;DHT22;2665;53.112;7.358;2024-01-30T14:02:57;11.50;99.90
5286;DHT22;2665;53.112;7.358;2024-01-30T14:05:24;11.40;43.40
5286;DHT22;2665;53.112;7.358;2024-01-30T14:07:51;11.50;1.00
5286;DHT22;2665;53.112;7.358;2024-01-30T14:10:17;11.20;1.00
5286;DHT22;2665;53.112;7.358;2024-01-30T14:12:43;11.00;89.90
5286;DHT22;2665;53.112;7.358;2024-01-30T14:15:09;10.80;99.90
5286;DHT22;2665;53.112;7.358;2024-01-30T14:17:35;10.70;1.00
5286;DHT22;2665;53.112;7.358;2024-01-30T14:20:02;10.60;1.00
5286;DHT22;2665;53.112;7.358;2024-01-30T14:22:29;10.50;1.00
5286;DHT22;2665;53.112;7.358;2024-01-30T14:24:55;10.50;99.90
5286;DHT22;2665;53.112;7.358;2024-01-30T14:27:22;10.50;99.90
5286;DHT22;2665;53.112;7.358;2024-01-30T14:29:47;10.50;89.10
5286;DHT22;2665;53.112;7.358;2024-01-30T14:32:13;10.40;36.90
5286;DHT22;2665;53.112;7.358;2024-01-30T14:34:39;10.30;99.90
5286;DHT22;2665;53.112;7.358;2024-01-30T14:37:05;10.20;99.90
5286;DHT22;2665;53.112;7.358;2024-01-30T14:39:30;10.20;1.00
5286;DHT22;2665;53.112;7.358;2024-01-30T14:41:56;10.10;1.00
5286;DHT22;2665;53.112;7.358;2024-01-30T14:44:21;10.10;1.20
5286;DHT22;2665;53.112;7.358;2024-01-30T14:46:49;10.00;99.90
5286;DHT22;2665;53.112;7.358;2024-01-30T14:49:15;10.20;99.90
5286;DHT22;2665;53.112;7.358;2024-01-30T14:51:41;10.30;99.90
5286;DHT22;2665;53.112;7.358;2024-01-30T14:54:07;10.20;1.00
5286;DHT22;2665;53.112;7.358;2024-01-30T14:56:33;10.20;17.60
5286;DHT22;2665;53.112;7.358;2024-01-30T14:58:59;10.10;99.90
5286;DHT22;2665;53.112;7.358;2024-01-30T15:01:24;10.10;1.00
5286;DHT22;2665;53.112;7.358;2024-01-30T15:03:50;10.10;1.00
5286;DHT22;2665;53.112;7.358;2024-01-30T15:06:21;10.10;99.90
5286;DHT22;2665;53.112;7.358;2024-01-30T15:08:49;10.00;99.90
5286;DHT22;2665;53.112;7.358;2024-01-30T15:11:15;9.90;1.00
5286;DHT22;2665;53.112;7.358;2024-01-30T15:13:41;9.90;1.00
5286;DHT22;2665;53.112;7.358;2024-01-30T15:16:07;9.80;99.90
5286;DHT22;2665;53.112;7.358;2024-01-30T15:18:33;10.10;1.00
5286;DHT22;2665;53.112;7.358;2024-01-30T15:20:58;10.10;99.90
5286;DHT22;2665;53.112;7.358;2024-01-30T15:23:24;10.00;99.90
5286;DHT22;2665;53.112;7.358;2024-01-30T15:25:50;9.90;99.90
5286;DHT22;2665;53.112;7.358;2024-01-30T15:28:15;9.70;1.00
5286;DHT22;2665;53.112;7.358;2024-01-30T15:30:42;9.70;99.90
5286;DHT22;2665;53.112;7.358;2024-01-30T15:33:12;9.60;1.00
5286;DHT22;2665;53.112;7.358;2024-01-30T15:35:37;9.50;1.00
5286;DHT22;2665;53.112;7.358;2024-01-30T15:38:04;9.50;1.00
5286;DHT22;2665;53.112;7.358;2024-01-30T15:40:34;9.50;93.50
5286;DHT22;2665;53.112;7.358;2024-01-30T15:42:59;9.40;99.90
5286;DHT22;2665;53.112;7.358;2024-01-30T15:45:25;9.40;3.50
5286;DHT22;2665;53.112;7.358;2024-01-30T15:47:51;9.40;1.00
5286;DHT22;2665;53.112;7.358;2024-01-30T15:50:17;9.30;99.90
5286;DHT22;2665;53.112;7.358;2024-01-30T15:52:42;9.20;99.90
5286;DHT22;2665;53.112;7.358;2024-01-30T15:55:08;9.10;1.00
5286;DHT22;2665;53.112;7.358;2024-01-30T15:57:34;9.10;1.00
5286;DHT22;2665;53.112;7.358;2024-01-30T15:59:59;9.10;1.00
5286;DHT22;2665;53.112;7.358;2024-01-30T16:02:26;9.10;41.60
5286;DHT22;2665;53.112;7.358;2024-01-30T16:04:53;9.00;99.90
5286;DHT22;2665;53.112;7.358;2024-01-30T16:07:18;9.10;99.90
5286;DHT22;2665;53.112;7.358;2024-01-30T16:09:44;9.10;40.90
5286;DHT22;2665;53.112;7.358;2024-01-30T16:12:10;9.10;1.00
5286;DHT22;2665;53.112;7.358;2024-01-30T16:14:36;9.10;1.00
5286;DHT22;2665;53.112;7.358;2024-01-30T16:17:02;9.10;1.00
5286;DHT22;2665;53.112;7.358;2024-01-30T16:19:27;9.00;41.70